Wetterdaten: April 2019
Datum Temp Feuchte Luftdruck Regen Wind W.Richtung SonenZeit UV-Index Solar Windben
01.04.2019 6,4 C 55 % 1020,6 hPa 0,0 l/m 5,9 km/h O-NO 11,17 h 2,2 UV-I 391 W/m 12,1 km/h
02.04.2019 10,0 C 62 % 1006,1 hPa 1,4 l/m 9,4 km/h O-SO 5,42 h 1,5 UV-I 234 W/m 18,1 km/h
03.04.2019 6,7 C 85 % 1000,8 hPa 13,4 l/m 6,6 km/h SO 0,92 h 0,9 UV-I 132 W/m 14,1 km/h
04.04.2019 4,0 C 88 % 1000,2 hPa 0,8 l/m 4,1 km/h W-NW 0,00 h 0,6 UV-I 54 W/m 7,2 km/h
05.04.2019 5,2 C 90 % 1005,6 hPa 3,8 l/m 2,3 km/h W-NW 0,00 h 0,5 UV-I 46 W/m 5,6 km/h
06.04.2019 11,7 C 72 % 1004,8 hPa 0,0 l/m 3,3 km/h O-NO 7,75 h 2,2 UV-I 330 W/m 7,2 km/h
07.04.2019 13,3 C 57 % 1005,9 hPa 0,0 l/m 3,0 km/h O-NO 7,58 h 1,9 UV-I 308 W/m 6,4 km/h
08.04.2019 11,1 C 59 % 1009,1 hPa 0,0 l/m 1,3 km/h NO 9,67 h 1,7 UV-I 354 W/m 3,6 km/h
09.04.2019 7,7 C 65 % 1011,7 hPa 0,0 l/m 4,6 km/h NO 10,67 h 2,0 UV-I 377 W/m 12,1 km/h
10.04.2019 4,4 C 60 % 1016,4 hPa 0,0 l/m 3,0 km/h NO 10,58 h 2,0 UV-I 395 W/m 7,6 km/h
11.04.2019 3,2 C 59 % 1023,1 hPa 0,0 l/m 3,6 km/h NO 6,08 h 1,4 UV-I 295 W/m 10,9 km/h
12.04.2019 1,3 C 72 % 1024,4 hPa 0,4 l/m 4,7 km/h O-NO 0,33 h 1,0 UV-I 144 W/m 11,3 km/h
13.04.2019 0,9 C 82 % 1022,9 hPa 5,2 l/m 4,6 km/h NO 2,58 h 1,1 UV-I 190 W/m 10,4 km/h
14.04.2019 2,2 C 81 % 1025,3 hPa 1,0 l/m 5,9 km/h NO 5,33 h 1,3 UV-I 229 W/m 14,5 km/h
15.04.2019 8,5 C 57 % 1023,3 hPa 0,0 l/m 5,6 km/h O-NO 12,00 h 2,0 UV-I 414 W/m 11,3 km/h
16.04.2019 10,9 C 48 % 1018,3 hPa 0,0 l/m 7,4 km/h O-NO 11,42 h 2,2 UV-I 409 W/m 16,5 km/h
17.04.2019 13,0 C 41 % 1022,8 hPa 0,0 l/m 6,0 km/h O-NO 10,67 h 2,3 UV-I 401 W/m 13,7 km/h
18.04.2019 14,0 C 43 % 1026,1 hPa 0,0 l/m 8,2 km/h O-NO 12,00 h 2,4 UV-I 412 W/m 16,5 km/h
19.04.2019 14,9 C 46 % 1028,6 hPa 0,0 l/m 4,0 km/h O-NO 12,00 h 2,5 UV-I 428 W/m 7,2 km/h
20.04.2019 15,1 C 42 % 1027,3 hPa 0,0 l/m 4,2 km/h O-NO 12,17 h 2,3 UV-I 423 W/m 9,3 km/h
21.04.2019 14,0 C 48 % 1018,8 hPa 0,0 l/m 3,0 km/h O-NO 12,25 h 2,8 UV-I 431 W/m 9,6 km/h
22.04.2019 15,1 C 41 % 1009,4 hPa 0,0 l/m 9,5 km/h O 12,00 h 2,8 UV-I 431 W/m 21,7 km/h
23.04.2019 14,4 C 56 % 999,9 hPa 0,0 l/m 11,8 km/h O-NO 12,25 h 2,5 UV-I 420 W/m 24,9 km/h
24.04.2019 18,6 C 55 % 999,9 hPa 3,8 l/m 5,9 km/h O-SO 10,50 h 2,3 UV-I 413 W/m 13,7 km/h
25.04.2019 15,9 C 54 % 1006,4 hPa 0,0 l/m 5,1 km/h SO 9,08 h 2,0 UV-I 335 W/m 13,7 km/h
26.04.2019 9,1 C 86 % 1012,3 hPa 3,6 l/m 3,2 km/h W-SW 0,25 h 0,7 UV-I 72 W/m 6,0 km/h
27.04.2019 6,4 C 85 % 1012,0 hPa 7,0 l/m 2,1 km/h SW 4,25 h 1,3 UV-I 187 W/m 4,8 km/h
28.04.2019 7,3 C 75 % 1018,8 hPa 1,8 l/m 1,2 km/h SW 2,75 h 1,6 UV-I 218 W/m 3,6 km/h
29.04.2019 6,4 C 83 % 1022,0 hPa 1,2 l/m 5,3 km/h NW 1,92 h 1,4 UV-I 164 W/m 10,9 km/h
30.04.2019 11,2 C 66 % 1019,6 hPa 0,0 l/m 2,1 km/h W-NW 9,42 h 2,5 UV-I 402 W/m 5,6 km/h
Min-Datum 11.04.19 22.04.19 04.04.19 12 Tage 01.04.19 - - - - 01.04.19
Min-Zeit 06:35 14:50 07:35 - 05:05 - - - - 05:05
Minimum -1,8 C 23 % 997,5 hPa - 0,0 km/h - - - - 0,0 km/h
Max-Datum 24.04.19 27.04.19 19.04.19 03.04.19 24.04.19 - 21.04.19 22.04.19 30.04.19 24.04.19
Max-Zeit 15:15 08:45 10:25 21:30 22:00 - 19:20 13:15 13:45 22:00
Maximum 24,6 C 91 % 1029,6 hPa 13,4 l/m 27,5 km/h
O-SO
- 12,17 h 4,5 UV-I 1007 W/m 54,7 km/h
O-SO
Durchschnitt 9,4 C 64 % 1014,8 hPa #43,4 l/m 4,9 km/h O-NO #223:00 h 1,8 UV-I 301 W/m 11,0 km/h

Durchschnitt Minimum Temp.3,9 C
Durchschnitt Maximum Temp.14,7 C